createdAt,value
2019-03-23T00:02:15.481Z,48.53
2019-03-23T00:04:44.252Z,47.57
2019-03-23T00:07:13.193Z,48.60
2019-03-23T00:09:41.856Z,50.20
2019-03-23T00:12:10.484Z,46.37
2019-03-23T00:14:39.264Z,50.83
2019-03-23T00:17:07.902Z,50.03
2019-03-23T00:19:36.743Z,51.40
2019-03-23T00:22:05.598Z,51.33
2019-03-23T00:24:34.265Z,50.30
2019-03-23T00:27:03.127Z,50.00
2019-03-23T00:29:31.841Z,49.37
2019-03-23T00:32:00.711Z,51.00
2019-03-23T00:34:29.347Z,53.03
2019-03-23T00:36:57.970Z,50.70
2019-03-23T00:39:26.781Z,47.87
2019-03-23T00:41:55.597Z,49.47
2019-03-23T00:44:24.281Z,50.57
2019-03-23T00:46:52.949Z,49.43
2019-03-23T00:49:21.745Z,50.03
2019-03-23T00:51:50.380Z,49.63
2019-03-23T00:54:19.060Z,48.90
2019-03-23T00:56:47.995Z,47.70
2019-03-23T00:59:16.692Z,49.60
2019-03-23T01:01:45.340Z,48.90
2019-03-23T01:04:15.936Z,49.23
2019-03-23T01:06:52.123Z,46.90
2019-03-23T01:09:15.124Z,48.30
2019-03-23T01:11:43.947Z,49.33
2019-03-23T01:14:12.611Z,53.07
2019-03-23T01:16:41.320Z,50.43
2019-03-23T01:19:10.124Z,49.43
2019-03-23T01:21:38.985Z,52.07
2019-03-23T01:24:07.741Z,50.77
2019-03-23T01:26:36.383Z,51.90
2019-03-23T01:29:07.043Z,53.23
2019-03-23T01:31:35.691Z,51.43
2019-03-23T01:34:06.428Z,50.97
2019-03-23T01:36:35.445Z,51.40
2019-03-23T01:39:06.567Z,52.53
2019-03-23T01:41:35.217Z,51.60
2019-03-23T01:44:04.808Z,49.93
2019-03-23T01:46:33.452Z,50.20
2019-03-23T01:49:02.206Z,51.70
2019-03-23T01:51:30.840Z,51.10
2019-03-23T01:53:59.595Z,50.73
2019-03-23T01:56:28.433Z,50.13
2019-03-23T01:58:57.063Z,49.03
2019-03-23T02:01:25.725Z,49.97
2019-03-23T02:03:54.518Z,51.00
2019-03-23T02:06:23.159Z,50.13
2019-03-23T02:08:51.838Z,51.23
2019-03-23T02:11:20.694Z,51.90
2019-03-23T02:13:51.130Z,52.53
2019-03-23T02:16:19.930Z,49.87
2019-03-23T02:18:48.547Z,47.50
2019-03-23T02:21:17.411Z,53.10
2019-03-23T02:23:46.265Z,52.10
2019-03-23T02:26:14.934Z,52.27
2019-03-23T02:28:43.773Z,51.50
2019-03-23T02:31:12.419Z,51.63
2019-03-23T02:33:42.172Z,50.90
2019-03-23T02:36:10.920Z,50.93
2019-03-23T02:38:39.579Z,51.70
2019-03-23T02:41:08.267Z,51.30
2019-03-23T02:43:37.117Z,49.50
2019-03-23T02:46:05.782Z,48.70
2019-03-23T02:48:34.471Z,50.40
2019-03-23T02:51:03.329Z,50.27
2019-03-23T02:53:31.946Z,47.57
2019-03-23T02:56:00.617Z,44.53
2019-03-23T02:58:29.503Z,45.57
2019-03-23T03:00:58.231Z,47.20
2019-03-23T03:03:26.860Z,48.57
2019-03-23T03:05:55.594Z,47.60
2019-03-23T03:08:24.219Z,47.43
2019-03-23T03:10:52.869Z,47.27
2019-03-23T03:13:21.750Z,45.77
2019-03-23T03:15:50.474Z,46.97
2019-03-23T03:18:19.142Z,48.97
2019-03-23T03:20:48.425Z,48.07
2019-03-23T03:23:17.162Z,47.23
2019-03-23T03:25:46.228Z,48.60
2019-03-23T03:28:14.898Z,45.20
2019-03-23T03:30:43.815Z,48.30
2019-03-23T03:33:15.893Z,47.87
2019-03-23T03:35:45.848Z,47.07
2019-03-23T03:38:14.830Z,49.97
2019-03-23T03:40:43.542Z,48.30
2019-03-23T03:43:13.641Z,49.10
2019-03-23T03:45:42.899Z,51.23
2019-03-23T03:48:11.570Z,47.20
2019-03-23T03:50:40.392Z,49.07
2019-03-23T03:53:09.134Z,50.50
2019-03-23T03:55:38.099Z,48.97
2019-03-23T03:58:09.731Z,50.03
2019-03-23T04:00:40.254Z,49.80
2019-03-23T04:03:08.974Z,49.30
2019-03-23T04:05:38.867Z,49.20
2019-03-23T04:08:11.457Z,50.10
2019-03-23T04:10:41.703Z,49.73
2019-03-23T04:13:11.552Z,50.87
2019-03-23T04:15:41.356Z,51.77
2019-03-23T04:18:10.179Z,52.07
2019-03-23T04:20:42.045Z,50.70
2019-03-23T04:23:10.756Z,52.90
2019-03-23T04:25:39.683Z,50.73
2019-03-23T04:28:08.953Z,52.90
2019-03-23T04:30:38.547Z,52.83
2019-03-23T04:33:08.670Z,52.73
2019-03-23T04:35:46.314Z,54.40
2019-03-23T04:38:22.658Z,51.23
2019-03-23T04:40:47.393Z,51.83
2019-03-23T04:43:19.480Z,52.83
2019-03-23T04:45:48.815Z,51.03
2019-03-23T04:48:20.415Z,51.50
2019-03-23T04:50:50.499Z,51.70
2019-03-23T04:53:19.347Z,52.87
2019-03-23T04:55:49.667Z,51.60
2019-03-23T04:58:20.022Z,52.67
2019-03-23T05:00:48.967Z,50.27
2019-03-23T05:03:18.418Z,55.37
2019-03-23T05:05:47.693Z,55.40
2019-03-23T05:08:20.154Z,54.40
2019-03-23T05:10:51.702Z,52.23
2019-03-23T05:13:20.487Z,50.73
2019-03-23T05:15:49.451Z,52.03
2019-03-23T05:18:18.155Z,51.83
2019-03-23T05:20:46.839Z,51.93
2019-03-23T05:23:15.735Z,55.50
2019-03-23T05:25:44.711Z,51.83
2019-03-23T05:28:13.618Z,56.37
2019-03-23T05:30:42.257Z,54.43
2019-03-23T05:33:10.942Z,53.83
2019-03-23T05:35:39.795Z,52.10
2019-03-23T05:38:08.488Z,53.67
2019-03-23T05:40:37.177Z,53.80
2019-03-23T05:43:07.830Z,52.90
2019-03-23T05:45:36.712Z,54.00
2019-03-23T05:48:05.614Z,53.03
2019-03-23T05:50:34.363Z,55.50
2019-03-23T05:53:03.174Z,53.13
2019-03-23T05:55:31.823Z,52.60
2019-03-23T05:58:02.616Z,53.90
2019-03-23T06:00:31.344Z,54.77
2019-03-23T06:03:00.191Z,51.50
2019-03-23T06:05:28.881Z,53.43
2019-03-23T06:07:57.533Z,51.27
2019-03-23T06:10:29.647Z,52.53
2019-03-23T06:12:58.421Z,51.83
2019-03-23T06:15:28.273Z,51.73
2019-03-23T06:17:57.157Z,54.67
2019-03-23T06:20:26.038Z,53.50
2019-03-23T06:22:55.901Z,54.60
2019-03-23T06:25:24.573Z,51.30
2019-03-23T06:27:53.454Z,53.83
2019-03-23T06:30:22.179Z,52.27
2019-03-23T06:32:51.126Z,53.33
2019-03-23T06:35:20.011Z,51.50
2019-03-23T06:37:48.729Z,53.40
2019-03-23T06:40:17.468Z,52.20
2019-03-23T06:42:47.354Z,52.93
2019-03-23T06:45:16.349Z,50.50
2019-03-23T06:47:45.065Z,54.90
2019-03-23T06:50:14.205Z,54.37
2019-03-23T06:52:42.940Z,50.57
2019-03-23T06:55:11.609Z,50.97
2019-03-23T06:57:40.595Z,49.67
2019-03-23T07:00:10.194Z,50.90
2019-03-23T07:02:38.899Z,49.17
2019-03-23T07:05:08.234Z,47.87
2019-03-23T07:07:37.052Z,48.77
2019-03-23T07:10:07.690Z,49.67
2019-03-23T07:12:36.812Z,49.73
2019-03-23T07:15:19.142Z,49.27
2019-03-23T07:17:38.795Z,45.53
2019-03-23T07:20:09.126Z,47.77
2019-03-23T07:22:38.100Z,49.67
2019-03-23T07:25:07.904Z,47.83
2019-03-23T07:27:36.763Z,46.93
2019-03-23T07:30:08.676Z,47.00
2019-03-23T07:32:38.814Z,45.70
2019-03-23T07:35:07.926Z,48.20
2019-03-23T07:37:36.584Z,47.07
2019-03-23T07:40:07.692Z,45.07
2019-03-23T07:42:36.366Z,43.87
2019-03-23T07:45:10.618Z,46.77
2019-03-23T07:47:39.571Z,45.60
2019-03-23T07:50:09.053Z,45.63
2019-03-23T07:52:37.708Z,44.53
2019-03-23T07:55:14.093Z,45.43
2019-03-23T07:57:42.961Z,46.00
2019-03-23T08:00:15.673Z,44.20
2019-03-23T08:02:44.345Z,44.23
2019-03-23T08:05:12.967Z,42.60
2019-03-23T08:07:41.774Z,40.10
2019-03-23T08:10:19.683Z,43.93
2019-03-23T08:12:48.479Z,40.93
2019-03-23T08:15:17.195Z,41.70
2019-03-23T08:17:45.954Z,41.80
2019-03-23T08:20:14.601Z,39.47
2019-03-23T08:22:43.445Z,39.90
2019-03-23T08:25:12.501Z,40.30
2019-03-23T08:27:41.721Z,40.23
2019-03-23T08:30:10.748Z,39.33
2019-03-23T08:32:39.461Z,37.97
2019-03-23T08:35:08.283Z,39.03
2019-03-23T08:37:36.916Z,41.13
2019-03-23T08:40:06.711Z,37.40
2019-03-23T08:42:35.473Z,40.40
2019-03-23T08:45:04.526Z,39.20
2019-03-23T08:47:33.304Z,41.90
2019-03-23T08:50:01.935Z,38.40
2019-03-23T08:52:30.710Z,38.60
2019-03-23T08:54:59.343Z,40.90
2019-03-23T08:57:28.014Z,37.40
2019-03-23T08:59:56.730Z,39.07
2019-03-23T09:02:25.395Z,38.20
2019-03-23T09:04:54.043Z,37.03
2019-03-23T09:07:22.783Z,35.33
2019-03-23T09:09:59.151Z,35.43
2019-03-23T09:12:21.997Z,36.53
2019-03-23T09:14:50.720Z,37.10
2019-03-23T09:17:19.372Z,37.77
2019-03-23T09:19:48.574Z,34.67
2019-03-23T09:22:19.285Z,36.40
2019-03-23T09:24:47.871Z,35.90
2019-03-23T09:27:16.635Z,35.00
2019-03-23T09:29:45.525Z,34.77
2019-03-23T09:32:14.192Z,35.03
2019-03-23T09:34:42.973Z,34.70
2019-03-23T09:37:11.772Z,34.33
2019-03-23T09:39:40.427Z,36.77
2019-03-23T09:42:10.485Z,34.23
2019-03-23T09:44:39.313Z,35.53
2019-03-23T09:47:08.002Z,34.93
2019-03-23T09:49:36.808Z,35.73
2019-03-23T09:52:05.452Z,36.93
2019-03-23T09:54:34.104Z,33.70
2019-03-23T09:57:02.866Z,34.13
2019-03-23T09:59:31.653Z,37.20
2019-03-23T10:02:00.337Z,36.13
2019-03-23T10:04:29.109Z,35.63
2019-03-23T10:06:57.894Z,34.23
2019-03-23T10:09:26.549Z,34.90
2019-03-23T10:11:55.216Z,34.20
2019-03-23T10:14:24.311Z,35.10
2019-03-23T10:16:52.948Z,33.47
2019-03-23T10:19:23.349Z,32.50
2019-03-23T10:21:52.313Z,32.73
2019-03-23T10:24:20.956Z,32.23
2019-03-23T10:26:52.111Z,35.90
2019-03-23T10:29:20.655Z,31.57
2019-03-23T10:31:49.451Z,34.60
2019-03-23T10:34:18.095Z,32.87
2019-03-23T10:36:46.912Z,32.60
2019-03-23T10:39:15.720Z,30.67
2019-03-23T10:41:44.473Z,31.17
2019-03-23T10:44:13.142Z,32.60
2019-03-23T10:46:42.024Z,32.47
2019-03-23T10:49:10.640Z,31.63
2019-03-23T10:51:39.402Z,34.60
2019-03-23T10:54:08.169Z,31.87
2019-03-23T10:56:36.935Z,29.07
2019-03-23T10:59:05.711Z,31.40
2019-03-23T11:01:34.450Z,30.87
2019-03-23T11:04:03.189Z,31.50
2019-03-23T11:06:31.829Z,32.27
2019-03-23T11:09:00.564Z,31.13
2019-03-23T11:11:29.182Z,31.27
2019-03-23T11:13:57.984Z,30.10
2019-03-23T11:16:26.636Z,29.77
2019-03-23T11:18:55.282Z,30.93
2019-03-23T11:21:24.083Z,29.00
2019-03-23T11:23:52.719Z,30.80
2019-03-23T11:26:21.350Z,29.20
2019-03-23T11:28:50.236Z,29.53
2019-03-23T11:31:18.921Z,30.80
2019-03-23T11:33:47.728Z,29.50
2019-03-23T11:36:16.349Z,31.80
2019-03-23T11:38:44.988Z,30.77
2019-03-23T11:41:13.769Z,30.67
2019-03-23T11:43:42.409Z,31.63
2019-03-23T11:46:11.183Z,30.20
2019-03-23T11:48:39.846Z,29.23
2019-03-23T11:51:08.768Z,29.63
2019-03-23T11:53:37.429Z,30.93
2019-03-23T11:56:06.188Z,29.90
2019-03-23T11:58:34.940Z,30.10
2019-03-23T12:01:03.599Z,30.97
2019-03-23T12:03:32.232Z,29.87
2019-03-23T12:06:00.980Z,30.13
2019-03-23T12:08:29.752Z,29.77
2019-03-23T12:11:02.845Z,29.17
2019-03-23T12:13:29.090Z,29.20
2019-03-23T12:15:57.749Z,29.47
2019-03-23T12:18:26.408Z,31.13
2019-03-23T12:20:55.148Z,30.03
2019-03-23T12:23:23.809Z,30.30
2019-03-23T12:25:52.532Z,32.20
2019-03-23T12:28:22.012Z,30.30
2019-03-23T12:30:50.716Z,28.10
2019-03-23T12:33:21.434Z,30.53
2019-03-23T12:35:50.004Z,29.10
2019-03-23T12:38:18.748Z,28.27
2019-03-23T12:40:47.524Z,28.80
2019-03-23T12:43:16.282Z,26.83
2019-03-23T12:45:46.289Z,29.00
2019-03-23T12:48:15.064Z,29.00
2019-03-23T12:50:43.704Z,28.87
2019-03-23T12:53:13.435Z,28.17
2019-03-23T12:55:42.447Z,28.63
2019-03-23T12:58:11.303Z,25.50
2019-03-23T13:00:40.046Z,27.40
2019-03-23T13:03:08.843Z,25.90
2019-03-23T13:05:37.526Z,23.40
2019-03-23T13:08:06.629Z,21.73
2019-03-23T13:10:35.302Z,19.00
2019-03-23T13:13:03.940Z,18.30
2019-03-23T13:15:32.721Z,15.43
2019-03-23T13:18:03.283Z,14.77
2019-03-23T13:20:32.146Z,12.60
2019-03-23T13:23:01.244Z,10.20
2019-03-23T13:25:30.027Z,9.53
2019-03-23T13:27:58.763Z,8.87
2019-03-23T13:30:27.625Z,9.03
2019-03-23T13:32:56.518Z,9.37
2019-03-23T13:35:25.168Z,12.27
2019-03-23T13:37:54.641Z,10.10
2019-03-23T13:40:23.704Z,9.67
2019-03-23T13:42:52.362Z,10.10
2019-03-23T13:45:21.204Z,10.10
2019-03-23T13:47:49.907Z,12.53
2019-03-23T13:50:27.390Z,13.70
2019-03-23T13:52:56.250Z,13.80
2019-03-23T13:55:28.129Z,13.83
2019-03-23T13:58:10.417Z,13.83
2019-03-23T14:00:58.453Z,15.33
2019-03-23T14:03:32.103Z,14.60
2019-03-23T14:06:02.708Z,16.17
2019-03-23T14:08:33.457Z,15.53
2019-03-23T14:11:02.334Z,15.30
2019-03-23T14:13:30.982Z,13.90
2019-03-23T14:15:59.642Z,12.17
2019-03-23T14:18:28.441Z,10.97
2019-03-23T14:20:57.103Z,11.87
2019-03-23T14:23:25.966Z,11.10
2019-03-23T14:25:54.635Z,11.27
2019-03-23T14:28:23.280Z,11.70
2019-03-23T14:30:52.143Z,13.10
2019-03-23T14:33:21.263Z,12.13
2019-03-23T14:35:50.162Z,12.67
2019-03-23T14:38:18.891Z,13.67
2019-03-23T14:40:47.722Z,13.67
2019-03-23T14:43:16.402Z,14.37
2019-03-23T14:45:45.059Z,13.83
2019-03-23T14:48:14.023Z,14.23
2019-03-23T14:50:42.892Z,13.73
2019-03-23T14:53:11.554Z,12.30
2019-03-23T14:55:40.484Z,11.73
2019-03-23T14:58:09.173Z,11.90
2019-03-23T15:00:37.961Z,12.27
2019-03-23T15:03:06.664Z,11.10
2019-03-23T15:05:37.526Z,10.80
2019-03-23T15:08:06.389Z,10.20
2019-03-23T15:10:35.230Z,10.90
2019-03-23T15:13:03.892Z,9.17
2019-03-23T15:15:32.581Z,8.90
2019-03-23T15:18:01.394Z,7.13
2019-03-23T15:20:30.083Z,4.60
2019-03-23T15:22:58.947Z,3.83
2019-03-23T15:25:27.836Z,4.20
2019-03-23T15:27:56.526Z,3.90
2019-03-23T15:30:25.248Z,3.77
2019-03-23T15:32:56.059Z,3.63
2019-03-23T15:35:24.985Z,2.93
2019-03-23T15:37:53.612Z,3.10
2019-03-23T15:40:22.445Z,2.30
2019-03-23T15:42:51.334Z,2.97
2019-03-23T15:45:20.068Z,3.43
2019-03-23T15:47:48.765Z,3.30
2019-03-23T15:50:17.614Z,2.73
2019-03-23T15:52:46.327Z,3.10
2019-03-23T15:55:15.036Z,2.40
2019-03-23T15:57:43.891Z,3.57
2019-03-23T16:00:13.778Z,2.60
2019-03-23T16:02:42.786Z,2.90
2019-03-23T16:05:12.578Z,3.00
2019-03-23T16:07:41.482Z,3.13
2019-03-23T16:10:10.808Z,3.00
2019-03-23T16:12:39.496Z,2.83
2019-03-23T16:15:10.302Z,2.23
2019-03-23T16:17:39.094Z,2.30
2019-03-23T16:20:09.222Z,2.63
2019-03-23T16:22:38.161Z,2.80
2019-03-23T16:25:08.725Z,2.40
2019-03-23T16:27:37.618Z,2.87
2019-03-23T16:30:08.910Z,2.53
2019-03-23T16:32:37.661Z,2.80
2019-03-23T16:35:07.201Z,2.47
2019-03-23T16:37:36.017Z,2.73
2019-03-23T16:40:10.999Z,2.10
2019-03-23T16:42:45.367Z,2.00
2019-03-23T16:45:10.687Z,2.60
2019-03-23T16:47:39.360Z,3.37
2019-03-23T16:50:09.649Z,2.63
2019-03-23T16:52:38.774Z,3.03
2019-03-23T16:55:09.659Z,2.73
2019-03-23T16:57:38.542Z,2.90
2019-03-23T17:00:07.979Z,2.70
2019-03-23T17:02:37.794Z,3.10
2019-03-23T17:05:06.955Z,2.83
2019-03-23T17:07:35.631Z,2.50
2019-03-23T17:10:05.252Z,2.97
2019-03-23T17:12:37.068Z,2.40
2019-03-23T17:15:06.929Z,2.47
2019-03-23T17:17:37.530Z,2.70
2019-03-23T17:20:07.876Z,2.87
2019-03-23T17:22:36.590Z,2.90
2019-03-23T17:25:05.915Z,2.37
2019-03-23T17:27:35.014Z,2.30
2019-03-23T17:30:04.395Z,2.63
2019-03-23T17:32:33.387Z,2.57
2019-03-23T17:35:02.146Z,2.50
2019-03-23T17:37:31.033Z,2.47
2019-03-23T17:39:59.951Z,2.43
2019-03-23T17:42:28.744Z,3.00
2019-03-23T17:44:57.505Z,2.27
2019-03-23T17:47:26.366Z,2.63
2019-03-23T17:49:57.311Z,2.33
2019-03-23T17:52:26.152Z,2.30
2019-03-23T17:54:55.084Z,2.57
2019-03-23T17:57:23.807Z,2.50
2019-03-23T17:59:52.490Z,2.63
2019-03-23T18:02:21.466Z,2.73
2019-03-23T18:04:51.935Z,2.20
2019-03-23T18:07:20.618Z,2.63
2019-03-23T18:09:49.515Z,2.60
2019-03-23T18:12:18.348Z,2.40
2019-03-23T18:14:47.381Z,2.97
2019-03-23T18:17:16.040Z,2.20
2019-03-23T18:19:45.700Z,2.70
2019-03-23T18:22:16.409Z,3.00
2019-03-23T18:24:45.261Z,3.40
2019-03-23T18:27:14.064Z,2.70
2019-03-23T18:29:42.990Z,3.00
2019-03-23T18:32:13.447Z,3.40
2019-03-23T18:34:44.047Z,3.10
2019-03-23T18:37:13.065Z,3.20
2019-03-23T18:39:41.711Z,3.27
2019-03-23T18:42:10.554Z,3.13
2019-03-23T18:44:39.384Z,3.07
2019-03-23T18:47:17.593Z,3.70
2019-03-23T18:49:46.726Z,3.07
2019-03-23T18:52:16.089Z,3.03
2019-03-23T18:54:45.191Z,3.27
2019-03-23T18:57:13.976Z,2.97
2019-03-23T18:59:42.862Z,4.13
2019-03-23T19:02:11.901Z,2.67
2019-03-23T19:04:40.716Z,2.87
2019-03-23T19:07:09.467Z,3.50
2019-03-23T19:09:38.226Z,2.80
2019-03-23T19:12:07.104Z,2.77
2019-03-23T19:14:35.976Z,3.03
2019-03-23T19:17:04.729Z,4.53
2019-03-23T19:19:33.800Z,3.60
2019-03-23T19:22:03.197Z,3.67
2019-03-23T19:24:31.926Z,3.50
2019-03-23T19:27:00.587Z,4.23
2019-03-23T19:29:30.245Z,2.73
2019-03-23T19:31:58.940Z,3.90
2019-03-23T19:34:27.867Z,3.73
2019-03-23T19:36:56.703Z,3.50
2019-03-23T19:39:25.475Z,2.87
2019-03-23T19:41:54.416Z,3.80
2019-03-23T19:44:23.090Z,3.20
2019-03-23T19:46:52.953Z,2.97
2019-03-23T19:49:21.866Z,2.70
2019-03-23T19:51:51.008Z,3.07
2019-03-23T19:54:19.786Z,2.77
2019-03-23T19:56:48.634Z,3.53
2019-03-23T19:59:18.472Z,3.00
2019-03-23T20:01:47.211Z,3.30
2019-03-23T20:04:15.850Z,3.20
2019-03-23T20:06:46.703Z,5.20
2019-03-23T20:09:15.367Z,3.37
2019-03-23T20:11:44.278Z,3.70
2019-03-23T20:14:13.087Z,3.67
2019-03-23T20:16:42.274Z,3.00
2019-03-23T20:19:11.499Z,3.70
2019-03-23T20:21:42.570Z,3.83
2019-03-23T20:24:11.596Z,4.87
2019-03-23T20:26:40.418Z,4.23
2019-03-23T20:29:09.303Z,3.50
2019-03-23T20:31:38.273Z,3.60
2019-03-23T20:34:07.513Z,3.83
2019-03-23T20:36:36.401Z,3.43
2019-03-23T20:39:06.778Z,3.70
2019-03-23T20:41:35.704Z,3.70
2019-03-23T20:44:09.344Z,4.97
2019-03-23T20:46:35.574Z,4.00
2019-03-23T20:49:07.202Z,3.73
2019-03-23T20:51:36.666Z,4.07
2019-03-23T20:54:05.622Z,3.07
2019-03-23T20:56:35.396Z,4.67
2019-03-23T20:59:04.312Z,3.90
2019-03-23T21:01:33.343Z,3.67
2019-03-23T21:04:02.071Z,3.97
2019-03-23T21:06:30.997Z,4.00
2019-03-23T21:09:01.693Z,4.30
2019-03-23T21:11:30.579Z,4.20
2019-03-23T21:13:59.959Z,4.40
2019-03-23T21:16:28.802Z,5.47
2019-03-23T21:18:57.806Z,4.93
2019-03-23T21:21:26.653Z,5.17
2019-03-23T21:23:55.706Z,5.57
2019-03-23T21:26:29.785Z,5.17
2019-03-23T21:28:58.556Z,4.60
2019-03-23T21:31:27.422Z,4.90
2019-03-23T21:33:56.183Z,4.80
2019-03-23T21:36:24.909Z,4.17
2019-03-23T21:38:54.005Z,5.03
2019-03-23T21:41:22.722Z,5.00
2019-03-23T21:43:51.407Z,4.90
2019-03-23T21:46:20.365Z,5.37
2019-03-23T21:48:49.026Z,4.90
2019-03-23T21:51:19.306Z,5.97
2019-03-23T21:53:48.088Z,4.57
2019-03-23T21:56:17.076Z,4.77
2019-03-23T21:58:49.188Z,5.07
2019-03-23T22:01:17.909Z,4.93
2019-03-23T22:03:46.726Z,5.00
2019-03-23T22:06:16.482Z,5.30
2019-03-23T22:08:47.248Z,6.50
2019-03-23T22:11:16.059Z,5.30
2019-03-23T22:13:44.956Z,5.30
2019-03-23T22:16:13.639Z,5.23
2019-03-23T22:18:42.878Z,5.47
2019-03-23T22:21:11.550Z,5.00
2019-03-23T22:23:40.442Z,4.73
2019-03-23T22:26:11.525Z,5.37
2019-03-23T22:28:43.408Z,5.17
2019-03-23T22:31:12.113Z,5.83
2019-03-23T22:33:42.764Z,4.73
2019-03-23T22:36:11.561Z,6.10
2019-03-23T22:38:40.271Z,6.50
2019-03-23T22:41:08.912Z,6.20
2019-03-23T22:43:37.937Z,4.60
2019-03-23T22:46:06.624Z,6.73
2019-03-23T22:48:35.310Z,5.70
2019-03-23T22:51:04.310Z,6.97
2019-03-23T22:53:32.993Z,6.43
2019-03-23T22:56:02.011Z,6.23
2019-03-23T22:58:30.738Z,5.80
2019-03-23T23:00:59.796Z,5.17
2019-03-23T23:03:30.521Z,6.30
2019-03-23T23:05:59.844Z,6.10
2019-03-23T23:08:28.824Z,5.63
2019-03-23T23:10:57.963Z,5.00
2019-03-23T23:13:26.677Z,6.10
2019-03-23T23:15:55.350Z,5.13
2019-03-23T23:18:24.211Z,5.23
2019-03-23T23:20:52.917Z,5.20
2019-03-23T23:23:21.833Z,5.23
2019-03-23T23:25:50.769Z,5.60
2019-03-23T23:28:19.507Z,5.60
2019-03-23T23:30:50.327Z,5.77
2019-03-23T23:33:19.429Z,5.33
2019-03-23T23:35:48.094Z,5.80
2019-03-23T23:38:17.117Z,6.13
2019-03-23T23:40:45.912Z,5.60
2019-03-23T23:43:15.189Z,5.70
2019-03-23T23:45:43.865Z,6.13
2019-03-23T23:48:12.683Z,5.80
2019-03-23T23:50:41.796Z,7.07
2019-03-23T23:53:11.886Z,5.80
2019-03-23T23:55:40.608Z,5.33
2019-03-23T23:58:09.516Z,6.07
